Aviation Digital Data Service (ADDS)

Output produced by METARs form (2242 UTC 04 March 2015)
found at http://www.aviationweather.gov/adds/metars/
 
KESN 042150Z COR 00000KT 1/8SM BR OVC001 09/09 A2993